sensor_id;sensor_type;location;lat;lon;timestamp;P1;durP1;ratioP1;P2;durP2;ratioP2
32172;SDS011;18679;45.190;5.722;2023-05-28T00:02:39;7.40;;;4.10;;
32172;SDS011;18679;45.190;5.722;2023-05-28T00:05:45;8.48;;;4.45;;
32172;SDS011;18679;45.190;5.722;2023-05-28T00:08:51;12.82;;;4.65;;
32172;SDS011;18679;45.190;5.722;2023-05-28T00:12:03;14.13;;;4.70;;
32172;SDS011;18679;45.190;5.722;2023-05-28T00:15:11;8.68;;;4.72;;
32172;SDS011;18679;45.190;5.722;2023-05-28T00:18:16;10.32;;;4.07;;
32172;SDS011;18679;45.190;5.722;2023-05-28T00:21:23;12.82;;;4.03;;
32172;SDS011;18679;45.190;5.722;2023-05-28T00:24:30;11.50;;;4.10;;
32172;SDS011;18679;45.190;5.722;2023-05-28T00:27:36;6.63;;;3.70;;
32172;SDS011;18679;45.190;5.722;2023-05-28T00:30:42;8.85;;;3.97;;
32172;SDS011;18679;45.190;5.722;2023-05-28T00:33:50;11.73;;;4.45;;
32172;SDS011;18679;45.190;5.722;2023-05-28T00:36:59;8.15;;;3.90;;
32172;SDS011;18679;45.190;5.722;2023-05-28T00:40:04;11.68;;;3.67;;
32172;SDS011;18679;45.190;5.722;2023-05-28T00:43:13;5.93;;;3.28;;
32172;SDS011;18679;45.190;5.722;2023-05-28T00:46:23;11.43;;;3.97;;
32172;SDS011;18679;45.190;5.722;2023-05-28T00:52:45;11.25;;;3.65;;
32172;SDS011;18679;45.190;5.722;2023-05-28T00:55:55;8.48;;;4.07;;
32172;SDS011;18679;45.190;5.722;2023-05-28T00:59:04;7.38;;;3.90;;
32172;SDS011;18679;45.190;5.722;2023-05-28T01:02:18;7.50;;;3.70;;
32172;SDS011;18679;45.190;5.722;2023-05-28T01:05:30;15.18;;;4.18;;
32172;SDS011;18679;45.190;5.722;2023-05-28T01:08:40;7.57;;;4.07;;
32172;SDS011;18679;45.190;5.722;2023-05-28T01:11:46;10.18;;;4.47;;
32172;SDS011;18679;45.190;5.722;2023-05-28T01:14:54;12.32;;;3.90;;
32172;SDS011;18679;45.190;5.722;2023-05-28T01:18:05;8.85;;;4.45;;
32172;SDS011;18679;45.190;5.722;2023-05-28T01:21:21;7.95;;;4.05;;
32172;SDS011;18679;45.190;5.722;2023-05-28T01:24:34;6.32;;;4.10;;
32172;SDS011;18679;45.190;5.722;2023-05-28T01:27:46;11.32;;;3.97;;
32172;SDS011;18679;45.190;5.722;2023-05-28T01:30:57;18.83;;;4.28;;
32172;SDS011;18679;45.190;5.722;2023-05-28T01:34:13;9.80;;;4.00;;
32172;SDS011;18679;45.190;5.722;2023-05-28T01:37:25;10.25;;;4.50;;
32172;SDS011;18679;45.190;5.722;2023-05-28T01:40:38;7.65;;;4.50;;
32172;SDS011;18679;45.190;5.722;2023-05-28T01:43:49;11.50;;;4.50;;
32172;SDS011;18679;45.190;5.722;2023-05-28T01:46:57;7.80;;;4.22;;
32172;SDS011;18679;45.190;5.722;2023-05-28T01:50:08;9.88;;;3.92;;
32172;SDS011;18679;45.190;5.722;2023-05-28T01:53:21;10.48;;;4.38;;
32172;SDS011;18679;45.190;5.722;2023-05-28T01:56:27;7.93;;;4.55;;
32172;SDS011;18679;45.190;5.722;2023-05-28T01:59:36;8.13;;;4.00;;
32172;SDS011;18679;45.190;5.722;2023-05-28T02:02:46;7.95;;;4.53;;
32172;SDS011;18679;45.190;5.722;2023-05-28T02:05:57;7.43;;;4.72;;
32172;SDS011;18679;45.190;5.722;2023-05-28T02:09:03;8.50;;;4.15;;
32172;SDS011;18679;45.190;5.722;2023-05-28T02:12:17;6.50;;;3.85;;
32172;SDS011;18679;45.190;5.722;2023-05-28T02:15:26;5.30;;;3.63;;
32172;SDS011;18679;45.190;5.722;2023-05-28T02:18:36;7.13;;;3.40;;
32172;SDS011;18679;45.190;5.722;2023-05-28T02:21:46;9.40;;;3.92;;
32172;SDS011;18679;45.190;5.722;2023-05-28T02:24:53;10.13;;;4.00;;
32172;SDS011;18679;45.190;5.722;2023-05-28T02:28:00;10.55;;;4.60;;
32172;SDS011;18679;45.190;5.722;2023-05-28T02:31:15;7.72;;;3.55;;
32172;SDS011;18679;45.190;5.722;2023-05-28T02:34:26;7.70;;;3.80;;
32172;SDS011;18679;45.190;5.722;2023-05-28T02:40:49;6.55;;;3.88;;
32172;SDS011;18679;45.190;5.722;2023-05-28T02:43:57;8.90;;;4.18;;
32172;SDS011;18679;45.190;5.722;2023-05-28T02:47:08;9.52;;;4.53;;
32172;SDS011;18679;45.190;5.722;2023-05-28T02:50:23;9.25;;;4.63;;
32172;SDS011;18679;45.190;5.722;2023-05-28T02:54:08;10.07;;;4.38;;
32172;SDS011;18679;45.190;5.722;2023-05-28T02:57:23;6.75;;;4.35;;
32172;SDS011;18679;45.190;5.722;2023-05-28T03:00:31;11.15;;;4.47;;
32172;SDS011;18679;45.190;5.722;2023-05-28T03:03:37;8.00;;;4.15;;
32172;SDS011;18679;45.190;5.722;2023-05-28T03:06:46;13.23;;;4.85;;
32172;SDS011;18679;45.190;5.722;2023-05-28T03:10:02;10.43;;;5.30;;
32172;SDS011;18679;45.190;5.722;2023-05-28T03:13:14;11.15;;;4.80;;
32172;SDS011;18679;45.190;5.722;2023-05-28T03:16:27;9.70;;;4.10;;
32172;SDS011;18679;45.190;5.722;2023-05-28T03:19:37;12.63;;;4.78;;
32172;SDS011;18679;45.190;5.722;2023-05-28T03:22:57;11.73;;;4.13;;
32172;SDS011;18679;45.190;5.722;2023-05-28T03:26:16;9.57;;;3.53;;
32172;SDS011;18679;45.190;5.722;2023-05-28T03:29:28;10.20;;;4.78;;
32172;SDS011;18679;45.190;5.722;2023-05-28T03:32:42;8.57;;;4.38;;
32172;SDS011;18679;45.190;5.722;2023-05-28T03:35:54;11.85;;;4.28;;
32172;SDS011;18679;45.190;5.722;2023-05-28T03:39:02;7.22;;;4.28;;
32172;SDS011;18679;45.190;5.722;2023-05-28T03:42:13;9.00;;;4.28;;
32172;SDS011;18679;45.190;5.722;2023-05-28T03:45:26;11.30;;;4.72;;
32172;SDS011;18679;45.190;5.722;2023-05-28T03:48:36;12.77;;;4.50;;
32172;SDS011;18679;45.190;5.722;2023-05-28T03:51:46;10.25;;;4.70;;
32172;SDS011;18679;45.190;5.722;2023-05-28T03:54:53;12.27;;;4.93;;
32172;SDS011;18679;45.190;5.722;2023-05-28T03:58:02;13.75;;;4.40;;
32172;SDS011;18679;45.190;5.722;2023-05-28T04:01:15;9.45;;;4.80;;
32172;SDS011;18679;45.190;5.722;2023-05-28T04:04:28;11.23;;;4.85;;
32172;SDS011;18679;45.190;5.722;2023-05-28T04:07:33;5.05;;;3.72;;
32172;SDS011;18679;45.190;5.722;2023-05-28T04:10:44;8.90;;;5.15;;
32172;SDS011;18679;45.190;5.722;2023-05-28T04:13:53;9.65;;;4.50;;
32172;SDS011;18679;45.190;5.722;2023-05-28T04:17:03;7.78;;;4.22;;
32172;SDS011;18679;45.190;5.722;2023-05-28T04:20:18;13.45;;;4.90;;
32172;SDS011;18679;45.190;5.722;2023-05-28T04:23:29;11.00;;;4.47;;
32172;SDS011;18679;45.190;5.722;2023-05-28T04:26:35;13.20;;;5.10;;
32172;SDS011;18679;45.190;5.722;2023-05-28T04:29:44;12.00;;;4.93;;
32172;SDS011;18679;45.190;5.722;2023-05-28T04:32:57;11.75;;;4.50;;
32172;SDS011;18679;45.190;5.722;2023-05-28T04:36:10;8.80;;;4.47;;
32172;SDS011;18679;45.190;5.722;2023-05-28T04:39:23;8.15;;;4.32;;
32172;SDS011;18679;45.190;5.722;2023-05-28T04:42:32;7.15;;;4.70;;
32172;SDS011;18679;45.190;5.722;2023-05-28T04:45:41;10.05;;;4.97;;
32172;SDS011;18679;45.190;5.722;2023-05-28T04:48:45;9.95;;;4.97;;
32172;SDS011;18679;45.190;5.722;2023-05-28T04:51:57;13.65;;;5.68;;
32172;SDS011;18679;45.190;5.722;2023-05-28T04:55:09;10.02;;;4.70;;
32172;SDS011;18679;45.190;5.722;2023-05-28T04:58:21;15.30;;;5.50;;
32172;SDS011;18679;45.190;5.722;2023-05-28T05:01:33;8.98;;;4.55;;
32172;SDS011;18679;45.190;5.722;2023-05-28T05:04:45;10.70;;;5.60;;
32172;SDS011;18679;45.190;5.722;2023-05-28T05:07:57;8.68;;;5.00;;
32172;SDS011;18679;45.190;5.722;2023-05-28T05:11:12;9.95;;;5.10;;
32172;SDS011;18679;45.190;5.722;2023-05-28T05:14:22;8.40;;;5.28;;
32172;SDS011;18679;45.190;5.722;2023-05-28T05:17:30;11.75;;;5.53;;
32172;SDS011;18679;45.190;5.722;2023-05-28T05:23:48;8.85;;;4.57;;
32172;SDS011;18679;45.190;5.722;2023-05-28T05:27:01;11.52;;;5.20;;
32172;SDS011;18679;45.190;5.722;2023-05-28T05:30:10;7.40;;;5.15;;
32172;SDS011;18679;45.190;5.722;2023-05-28T05:36:44;14.05;;;5.10;;
32172;SDS011;18679;45.190;5.722;2023-05-28T05:40:06;11.68;;;5.20;;
32172;SDS011;18679;45.190;5.722;2023-05-28T05:43:37;9.18;;;4.90;;
32172;SDS011;18679;45.190;5.722;2023-05-28T05:46:43;9.90;;;5.30;;
32172;SDS011;18679;45.190;5.722;2023-05-28T05:49:52;13.00;;;4.82;;
32172;SDS011;18679;45.190;5.722;2023-05-28T05:53:08;9.50;;;4.95;;
32172;SDS011;18679;45.190;5.722;2023-05-28T05:56:18;14.27;;;4.72;;
32172;SDS011;18679;45.190;5.722;2023-05-28T05:59:25;7.65;;;4.25;;
32172;SDS011;18679;45.190;5.722;2023-05-28T06:02:33;11.40;;;4.57;;
32172;SDS011;18679;45.190;5.722;2023-05-28T06:06:00;17.38;;;4.97;;
32172;SDS011;18679;45.190;5.722;2023-05-28T06:09:39;8.45;;;4.30;;
32172;SDS011;18679;45.190;5.722;2023-05-28T06:12:57;8.77;;;4.78;;
32172;SDS011;18679;45.190;5.722;2023-05-28T06:16:12;15.30;;;5.10;;
32172;SDS011;18679;45.190;5.722;2023-05-28T06:19:22;16.00;;;4.50;;
32172;SDS011;18679;45.190;5.722;2023-05-28T06:25:40;9.52;;;4.65;;
32172;SDS011;18679;45.190;5.722;2023-05-28T06:28:48;11.75;;;4.95;;
32172;SDS011;18679;45.190;5.722;2023-05-28T06:32:07;9.35;;;4.90;;
32172;SDS011;18679;45.190;5.722;2023-05-28T06:35:20;9.50;;;4.38;;
32172;SDS011;18679;45.190;5.722;2023-05-28T06:38:28;9.40;;;4.60;;
32172;SDS011;18679;45.190;5.722;2023-05-28T06:41:35;8.18;;;5.07;;
32172;SDS011;18679;45.190;5.722;2023-05-28T06:44:53;9.80;;;4.72;;
32172;SDS011;18679;45.190;5.722;2023-05-28T06:48:03;11.05;;;4.68;;
32172;SDS011;18679;45.190;5.722;2023-05-28T06:51:23;8.57;;;4.53;;
32172;SDS011;18679;45.190;5.722;2023-05-28T06:54:30;9.25;;;4.85;;
32172;SDS011;18679;45.190;5.722;2023-05-28T06:57:43;11.48;;;5.25;;
32172;SDS011;18679;45.190;5.722;2023-05-28T07:01:26;9.48;;;4.40;;
32172;SDS011;18679;45.190;5.722;2023-05-28T07:04:51;11.32;;;6.00;;
32172;SDS011;18679;45.190;5.722;2023-05-28T07:08:08;20.15;;;6.22;;
32172;SDS011;18679;45.190;5.722;2023-05-28T07:11:19;10.38;;;5.70;;
32172;SDS011;18679;45.190;5.722;2023-05-28T07:14:26;14.07;;;5.78;;
32172;SDS011;18679;45.190;5.722;2023-05-28T07:17:34;11.18;;;5.70;;
32172;SDS011;18679;45.190;5.722;2023-05-28T07:20:46;13.90;;;6.18;;
32172;SDS011;18679;45.190;5.722;2023-05-28T07:24:08;10.93;;;4.88;;
32172;SDS011;18679;45.190;5.722;2023-05-28T07:27:22;13.00;;;4.93;;
32172;SDS011;18679;45.190;5.722;2023-05-28T07:30:31;8.73;;;4.85;;
32172;SDS011;18679;45.190;5.722;2023-05-28T07:33:41;9.82;;;4.65;;
32172;SDS011;18679;45.190;5.722;2023-05-28T07:36:52;9.07;;;4.70;;
32172;SDS011;18679;45.190;5.722;2023-05-28T07:40:02;8.18;;;4.53;;
32172;SDS011;18679;45.190;5.722;2023-05-28T07:43:20;11.43;;;4.45;;
32172;SDS011;18679;45.190;5.722;2023-05-28T07:46:31;8.27;;;4.72;;
32172;SDS011;18679;45.190;5.722;2023-05-28T07:49:58;7.93;;;4.72;;
32172;SDS011;18679;45.190;5.722;2023-05-28T07:53:37;9.67;;;4.47;;
32172;SDS011;18679;45.190;5.722;2023-05-28T07:56:57;9.73;;;4.32;;
32172;SDS011;18679;45.190;5.722;2023-05-28T08:00:12;12.55;;;4.45;;
32172;SDS011;18679;45.190;5.722;2023-05-28T08:03:36;9.38;;;4.78;;
32172;SDS011;18679;45.190;5.722;2023-05-28T08:06:57;6.63;;;4.35;;
32172;SDS011;18679;45.190;5.722;2023-05-28T08:10:09;6.65;;;3.97;;
32172;SDS011;18679;45.190;5.722;2023-05-28T08:13:20;8.57;;;3.97;;
32172;SDS011;18679;45.190;5.722;2023-05-28T08:16:31;8.55;;;4.18;;
32172;SDS011;18679;45.190;5.722;2023-05-28T08:19:57;5.47;;;3.60;;
32172;SDS011;18679;45.190;5.722;2023-05-28T08:23:38;8.68;;;3.92;;
32172;SDS011;18679;45.190;5.722;2023-05-28T08:26:45;7.40;;;4.05;;
32172;SDS011;18679;45.190;5.722;2023-05-28T08:29:57;26.67;;;4.28;;
32172;SDS011;18679;45.190;5.722;2023-05-28T08:33:09;5.82;;;3.95;;
32172;SDS011;18679;45.190;5.722;2023-05-28T08:36:18;18.60;;;3.85;;
32172;SDS011;18679;45.190;5.722;2023-05-28T08:39:31;7.45;;;3.75;;
32172;SDS011;18679;45.190;5.722;2023-05-28T08:42:40;6.18;;;3.50;;
32172;SDS011;18679;45.190;5.722;2023-05-28T08:45:51;6.80;;;3.80;;
32172;SDS011;18679;45.190;5.722;2023-05-28T08:49:09;12.75;;;4.10;;
32172;SDS011;18679;45.190;5.722;2023-05-28T08:52:23;7.55;;;4.00;;
32172;SDS011;18679;45.190;5.722;2023-05-28T08:55:30;14.13;;;5.57;;
32172;SDS011;18679;45.190;5.722;2023-05-28T08:58:49;7.10;;;4.37;;
32172;SDS011;18679;45.190;5.722;2023-05-28T09:02:02;7.50;;;5.25;;
32172;SDS011;18679;45.190;5.722;2023-05-28T09:05:17;11.13;;;3.75;;
32172;SDS011;18679;45.190;5.722;2023-05-28T09:08:25;6.32;;;3.65;;
32172;SDS011;18679;45.190;5.722;2023-05-28T09:11:34;11.00;;;4.03;;
32172;SDS011;18679;45.190;5.722;2023-05-28T09:14:42;9.95;;;3.58;;
32172;SDS011;18679;45.190;5.722;2023-05-28T09:17:48;7.72;;;3.95;;
32172;SDS011;18679;45.190;5.722;2023-05-28T09:21:08;7.70;;;3.95;;
32172;SDS011;18679;45.190;5.722;2023-05-28T09:24:18;12.50;;;4.53;;
32172;SDS011;18679;45.190;5.722;2023-05-28T09:27:43;7.07;;;3.85;;
32172;SDS011;18679;45.190;5.722;2023-05-28T09:30:52;6.07;;;4.00;;
32172;SDS011;18679;45.190;5.722;2023-05-28T09:34:12;13.00;;;4.53;;
32172;SDS011;18679;45.190;5.722;2023-05-28T09:37:25;9.25;;;4.00;;
32172;SDS011;18679;45.190;5.722;2023-05-28T09:40:41;10.38;;;3.90;;
32172;SDS011;18679;45.190;5.722;2023-05-28T09:43:58;12.98;;;4.25;;
32172;SDS011;18679;45.190;5.722;2023-05-28T09:47:16;11.88;;;4.60;;
32172;SDS011;18679;45.190;5.722;2023-05-28T09:50:24;9.27;;;4.57;;
32172;SDS011;18679;45.190;5.722;2023-05-28T09:53:32;10.25;;;4.45;;
32172;SDS011;18679;45.190;5.722;2023-05-28T09:56:43;8.77;;;3.83;;
32172;SDS011;18679;45.190;5.722;2023-05-28T09:59:54;11.20;;;3.80;;
32172;SDS011;18679;45.190;5.722;2023-05-28T10:03:28;6.25;;;4.18;;
32172;SDS011;18679;45.190;5.722;2023-05-28T10:06:51;8.88;;;4.30;;
32172;SDS011;18679;45.190;5.722;2023-05-28T10:10:01;13.13;;;4.00;;
32172;SDS011;18679;45.190;5.722;2023-05-28T10:13:09;7.60;;;4.20;;
32172;SDS011;18679;45.190;5.722;2023-05-28T10:16:18;7.25;;;4.57;;
32172;SDS011;18679;45.190;5.722;2023-05-28T10:19:25;12.00;;;4.35;;
32172;SDS011;18679;45.190;5.722;2023-05-28T10:22:34;7.05;;;3.90;;
32172;SDS011;18679;45.190;5.722;2023-05-28T10:25:47;6.53;;;3.92;;
32172;SDS011;18679;45.190;5.722;2023-05-28T10:28:56;6.63;;;4.28;;
32172;SDS011;18679;45.190;5.722;2023-05-28T10:32:09;8.43;;;4.28;;
32172;SDS011;18679;45.190;5.722;2023-05-28T10:35:21;6.03;;;3.90;;
32172;SDS011;18679;45.190;5.722;2023-05-28T10:38:27;7.28;;;4.18;;
32172;SDS011;18679;45.190;5.722;2023-05-28T10:41:36;7.55;;;4.40;;
32172;SDS011;18679;45.190;5.722;2023-05-28T10:44:49;8.60;;;4.05;;
32172;SDS011;18679;45.190;5.722;2023-05-28T10:48:12;8.00;;;4.25;;
32172;SDS011;18679;45.190;5.722;2023-05-28T10:51:31;14.27;;;5.20;;
32172;SDS011;18679;45.190;5.722;2023-05-28T10:55:11;7.72;;;3.72;;
32172;SDS011;18679;45.190;5.722;2023-05-28T10:58:27;8.55;;;4.15;;
32172;SDS011;18679;45.190;5.722;2023-05-28T11:02:01;5.90;;;3.78;;
32172;SDS011;18679;45.190;5.722;2023-05-28T11:08:17;6.70;;;4.10;;
32172;SDS011;18679;45.190;5.722;2023-05-28T11:11:25;9.68;;;4.45;;
32172;SDS011;18679;45.190;5.722;2023-05-28T11:14:35;9.60;;;4.63;;
32172;SDS011;18679;45.190;5.722;2023-05-28T11:17:43;8.73;;;4.38;;
32172;SDS011;18679;45.190;5.722;2023-05-28T11:21:01;6.60;;;4.00;;
32172;SDS011;18679;45.190;5.722;2023-05-28T11:24:13;7.05;;;3.80;;
32172;SDS011;18679;45.190;5.722;2023-05-28T11:27:23;6.90;;;3.97;;
32172;SDS011;18679;45.190;5.722;2023-05-28T11:30:33;6.03;;;3.75;;
32172;SDS011;18679;45.190;5.722;2023-05-28T11:33:42;7.88;;;4.30;;
32172;SDS011;18679;45.190;5.722;2023-05-28T11:36:55;8.07;;;3.92;;
32172;SDS011;18679;45.190;5.722;2023-05-28T11:40:10;5.82;;;3.85;;
32172;SDS011;18679;45.190;5.722;2023-05-28T11:43:23;5.43;;;3.63;;
32172;SDS011;18679;45.190;5.722;2023-05-28T11:46:31;6.40;;;3.85;;
32172;SDS011;18679;45.190;5.722;2023-05-28T11:49:41;9.77;;;4.07;;
32172;SDS011;18679;45.190;5.722;2023-05-28T11:52:52;7.55;;;3.72;;
32172;SDS011;18679;45.190;5.722;2023-05-28T11:56:09;9.68;;;3.88;;
32172;SDS011;18679;45.190;5.722;2023-05-28T11:59:23;8.38;;;3.55;;
32172;SDS011;18679;45.190;5.722;2023-05-28T12:02:29;8.70;;;3.53;;
32172;SDS011;18679;45.190;5.722;2023-05-28T12:05:41;11.35;;;3.90;;
32172;SDS011;18679;45.190;5.722;2023-05-28T12:08:52;10.48;;;4.10;;
32172;SDS011;18679;45.190;5.722;2023-05-28T12:15:17;5.40;;;3.90;;
32172;SDS011;18679;45.190;5.722;2023-05-28T12:18:30;5.22;;;3.95;;
32172;SDS011;18679;45.190;5.722;2023-05-28T12:21:43;6.28;;;3.20;;
32172;SDS011;18679;45.190;5.722;2023-05-28T12:24:51;6.60;;;3.53;;
32172;SDS011;18679;45.190;5.722;2023-05-28T12:27:56;9.25;;;3.50;;
32172;SDS011;18679;45.190;5.722;2023-05-28T12:31:09;8.18;;;3.78;;
32172;SDS011;18679;45.190;5.722;2023-05-28T12:34:21;8.95;;;3.88;;
32172;SDS011;18679;45.190;5.722;2023-05-28T12:37:26;4.82;;;2.95;;
32172;SDS011;18679;45.190;5.722;2023-05-28T12:40:35;6.05;;;3.20;;
32172;SDS011;18679;45.190;5.722;2023-05-28T12:43:43;5.80;;;3.50;;
32172;SDS011;18679;45.190;5.722;2023-05-28T12:46:53;5.68;;;3.63;;
32172;SDS011;18679;45.190;5.722;2023-05-28T12:50:01;4.75;;;3.60;;
32172;SDS011;18679;45.190;5.722;2023-05-28T12:53:12;8.55;;;4.07;;
32172;SDS011;18679;45.190;5.722;2023-05-28T12:56:23;4.95;;;3.13;;
32172;SDS011;18679;45.190;5.722;2023-05-28T12:59:33;6.20;;;3.20;;
32172;SDS011;18679;45.190;5.722;2023-05-28T13:02:47;6.47;;;3.55;;
32172;SDS011;18679;45.190;5.722;2023-05-28T13:05:56;8.43;;;3.58;;
32172;SDS011;18679;45.190;5.722;2023-05-28T13:09:07;6.18;;;3.90;;
32172;SDS011;18679;45.190;5.722;2023-05-28T13:12:24;8.10;;;3.33;;
32172;SDS011;18679;45.190;5.722;2023-05-28T13:18:38;8.05;;;3.70;;
32172;SDS011;18679;45.190;5.722;2023-05-28T13:21:47;6.25;;;3.60;;
32172;SDS011;18679;45.190;5.722;2023-05-28T13:24:57;7.82;;;4.03;;
32172;SDS011;18679;45.190;5.722;2023-05-28T13:28:05;9.68;;;3.60;;
32172;SDS011;18679;45.190;5.722;2023-05-28T13:31:15;6.22;;;3.80;;
32172;SDS011;18679;45.190;5.722;2023-05-28T13:34:25;7.90;;;3.85;;
32172;SDS011;18679;45.190;5.722;2023-05-28T13:37:31;6.93;;;3.80;;
32172;SDS011;18679;45.190;5.722;2023-05-28T13:40:41;5.90;;;3.55;;
32172;SDS011;18679;45.190;5.722;2023-05-28T13:43:51;6.70;;;3.85;;
32172;SDS011;18679;45.190;5.722;2023-05-28T13:47:02;10.80;;;4.95;;
32172;SDS011;18679;45.190;5.722;2023-05-28T13:50:11;8.18;;;3.42;;
32172;SDS011;18679;45.190;5.722;2023-05-28T13:53:22;8.80;;;3.95;;
32172;SDS011;18679;45.190;5.722;2023-05-28T13:56:41;7.63;;;3.63;;
32172;SDS011;18679;45.190;5.722;2023-05-28T13:59:47;8.73;;;3.50;;
32172;SDS011;18679;45.190;5.722;2023-05-28T14:02:58;4.90;;;3.33;;
32172;SDS011;18679;45.190;5.722;2023-05-28T14:06:06;7.60;;;3.38;;
32172;SDS011;18679;45.190;5.722;2023-05-28T14:09:13;6.00;;;3.15;;
32172;SDS011;18679;45.190;5.722;2023-05-28T14:12:23;7.30;;;3.78;;
32172;SDS011;18679;45.190;5.722;2023-05-28T14:15:33;6.53;;;3.65;;
32172;SDS011;18679;45.190;5.722;2023-05-28T14:18:37;12.48;;;3.67;;
32172;SDS011;18679;45.190;5.722;2023-05-28T14:21:44;9.15;;;3.90;;
32172;SDS011;18679;45.190;5.722;2023-05-28T14:24:53;7.25;;;3.33;;
32172;SDS011;18679;45.190;5.722;2023-05-28T14:28:08;10.45;;;3.60;;
32172;SDS011;18679;45.190;5.722;2023-05-28T14:31:17;6.75;;;3.53;;
32172;SDS011;18679;45.190;5.722;2023-05-28T14:34:33;6.90;;;2.80;;
32172;SDS011;18679;45.190;5.722;2023-05-28T14:37:42;5.18;;;3.50;;
32172;SDS011;18679;45.190;5.722;2023-05-28T14:40:49;8.50;;;3.27;;
32172;SDS011;18679;45.190;5.722;2023-05-28T14:44:04;5.40;;;3.20;;
32172;SDS011;18679;45.190;5.722;2023-05-28T14:47:16;7.22;;;3.80;;
32172;SDS011;18679;45.190;5.722;2023-05-28T14:50:27;8.73;;;3.20;;
32172;SDS011;18679;45.190;5.722;2023-05-28T14:53:35;5.72;;;2.80;;
32172;SDS011;18679;45.190;5.722;2023-05-28T14:56:47;8.05;;;3.35;;
32172;SDS011;18679;45.190;5.722;2023-05-28T14:59:59;8.05;;;2.88;;
32172;SDS011;18679;45.190;5.722;2023-05-28T15:03:11;8.45;;;3.17;;
32172;SDS011;18679;45.190;5.722;2023-05-28T15:06:23;8.73;;;2.70;;
32172;SDS011;18679;45.190;5.722;2023-05-28T15:09:31;5.32;;;2.90;;
32172;SDS011;18679;45.190;5.722;2023-05-28T15:12:37;5.47;;;2.97;;
32172;SDS011;18679;45.190;5.722;2023-05-28T15:15:48;8.57;;;3.25;;
32172;SDS011;18679;45.190;5.722;2023-05-28T15:18:56;7.13;;;3.42;;
32172;SDS011;18679;45.190;5.722;2023-05-28T15:22:09;5.90;;;3.17;;
32172;SDS011;18679;45.190;5.722;2023-05-28T15:25:20;4.97;;;3.35;;
32172;SDS011;18679;45.190;5.722;2023-05-28T15:28:29;9.70;;;3.00;;
32172;SDS011;18679;45.190;5.722;2023-05-28T15:31:36;6.13;;;3.28;;
32172;SDS011;18679;45.190;5.722;2023-05-28T15:34:43;5.30;;;4.00;;
32172;SDS011;18679;45.190;5.722;2023-05-28T15:37:52;7.40;;;3.17;;
32172;SDS011;18679;45.190;5.722;2023-05-28T15:41:02;5.32;;;3.10;;
32172;SDS011;18679;45.190;5.722;2023-05-28T15:44:15;9.70;;;3.63;;
32172;SDS011;18679;45.190;5.722;2023-05-28T15:47:26;6.28;;;3.30;;
32172;SDS011;18679;45.190;5.722;2023-05-28T15:50:33;7.07;;;3.53;;
32172;SDS011;18679;45.190;5.722;2023-05-28T15:53:39;5.93;;;2.90;;
32172;SDS011;18679;45.190;5.722;2023-05-28T15:56:48;9.65;;;2.78;;
32172;SDS011;18679;45.190;5.722;2023-05-28T15:59:54;13.30;;;3.60;;
32172;SDS011;18679;45.190;5.722;2023-05-28T16:03:08;6.35;;;3.10;;
32172;SDS011;18679;45.190;5.722;2023-05-28T16:06:16;5.03;;;3.05;;
32172;SDS011;18679;45.190;5.722;2023-05-28T16:09:24;7.70;;;2.88;;
32172;SDS011;18679;45.190;5.722;2023-05-28T16:12:30;6.40;;;2.92;;
32172;SDS011;18679;45.190;5.722;2023-05-28T16:15:41;5.55;;;2.90;;
32172;SDS011;18679;45.190;5.722;2023-05-28T16:18:53;9.82;;;3.67;;
32172;SDS011;18679;45.190;5.722;2023-05-28T16:22:06;6.20;;;3.00;;
32172;SDS011;18679;45.190;5.722;2023-05-28T16:25:17;6.63;;;3.42;;
32172;SDS011;18679;45.190;5.722;2023-05-28T16:28:23;8.20;;;3.30;;
32172;SDS011;18679;45.190;5.722;2023-05-28T16:31:31;8.63;;;2.83;;
32172;SDS011;18679;45.190;5.722;2023-05-28T16:34:40;6.83;;;3.30;;
32172;SDS011;18679;45.190;5.722;2023-05-28T16:37:56;5.63;;;2.97;;
32172;SDS011;18679;45.190;5.722;2023-05-28T16:41:04;6.68;;;3.63;;
32172;SDS011;18679;45.190;5.722;2023-05-28T16:44:17;7.28;;;3.25;;
32172;SDS011;18679;45.190;5.722;2023-05-28T16:47:25;9.98;;;3.40;;
32172;SDS011;18679;45.190;5.722;2023-05-28T16:50:33;10.82;;;3.75;;
32172;SDS011;18679;45.190;5.722;2023-05-28T16:53:41;6.53;;;3.22;;
32172;SDS011;18679;45.190;5.722;2023-05-28T16:56:50;6.18;;;2.65;;
32172;SDS011;18679;45.190;5.722;2023-05-28T16:59:56;4.40;;;2.33;;
32172;SDS011;18679;45.190;5.722;2023-05-28T17:03:09;4.60;;;2.60;;
32172;SDS011;18679;45.190;5.722;2023-05-28T17:06:23;8.40;;;2.53;;
32172;SDS011;18679;45.190;5.722;2023-05-28T17:09:33;8.15;;;2.00;;
32172;SDS011;18679;45.190;5.722;2023-05-28T17:12:41;7.32;;;2.75;;
32172;SDS011;18679;45.190;5.722;2023-05-28T17:15:52;10.60;;;3.17;;
32172;SDS011;18679;45.190;5.722;2023-05-28T17:19:01;7.68;;;3.38;;
32172;SDS011;18679;45.190;5.722;2023-05-28T17:22:16;5.55;;;2.70;;
32172;SDS011;18679;45.190;5.722;2023-05-28T17:25:23;10.60;;;3.03;;
32172;SDS011;18679;45.190;5.722;2023-05-28T17:28:28;7.40;;;3.05;;
32172;SDS011;18679;45.190;5.722;2023-05-28T17:31:36;10.88;;;3.13;;
32172;SDS011;18679;45.190;5.722;2023-05-28T17:34:43;6.32;;;3.00;;
32172;SDS011;18679;45.190;5.722;2023-05-28T17:37:52;7.93;;;3.55;;
32172;SDS011;18679;45.190;5.722;2023-05-28T17:41:05;7.68;;;3.28;;
32172;SDS011;18679;45.190;5.722;2023-05-28T17:44:20;9.60;;;3.28;;
32172;SDS011;18679;45.190;5.722;2023-05-28T17:47:30;4.75;;;2.97;;
32172;SDS011;18679;45.190;5.722;2023-05-28T17:50:39;7.20;;;3.13;;
32172;SDS011;18679;45.190;5.722;2023-05-28T17:53:45;8.85;;;3.95;;
32172;SDS011;18679;45.190;5.722;2023-05-28T17:56:56;5.85;;;2.88;;
32172;SDS011;18679;45.190;5.722;2023-05-28T18:00:14;9.90;;;2.70;;
32172;SDS011;18679;45.190;5.722;2023-05-28T18:03:27;11.88;;;3.65;;
32172;SDS011;18679;45.190;5.722;2023-05-28T18:06:35;8.40;;;3.97;;
32172;SDS011;18679;45.190;5.722;2023-05-28T18:09:43;10.77;;;3.90;;
32172;SDS011;18679;45.190;5.722;2023-05-28T18:12:52;8.07;;;2.92;;
32172;SDS011;18679;45.190;5.722;2023-05-28T18:16:00;6.97;;;3.33;;
32172;SDS011;18679;45.190;5.722;2023-05-28T18:19:06;12.50;;;4.25;;
32172;SDS011;18679;45.190;5.722;2023-05-28T18:22:16;5.93;;;2.85;;
32172;SDS011;18679;45.190;5.722;2023-05-28T18:25:27;7.07;;;2.58;;
32172;SDS011;18679;45.190;5.722;2023-05-28T18:28:37;6.38;;;2.83;;
32172;SDS011;18679;45.190;5.722;2023-05-28T18:31:47;5.20;;;2.42;;
32172;SDS011;18679;45.190;5.722;2023-05-28T18:34:55;6.93;;;3.53;;
32172;SDS011;18679;45.190;5.722;2023-05-28T18:38:05;7.03;;;2.75;;
32172;SDS011;18679;45.190;5.722;2023-05-28T18:41:18;7.28;;;2.95;;
32172;SDS011;18679;45.190;5.722;2023-05-28T18:44:30;5.10;;;2.38;;
32172;SDS011;18679;45.190;5.722;2023-05-28T18:47:39;7.10;;;2.80;;
32172;SDS011;18679;45.190;5.722;2023-05-28T18:50:47;5.47;;;2.58;;
32172;SDS011;18679;45.190;5.722;2023-05-28T18:53:59;5.70;;;2.42;;
32172;SDS011;18679;45.190;5.722;2023-05-28T18:57:14;8.38;;;2.35;;
32172;SDS011;18679;45.190;5.722;2023-05-28T19:00:26;9.35;;;2.25;;
32172;SDS011;18679;45.190;5.722;2023-05-28T19:03:33;5.40;;;3.42;;
32172;SDS011;18679;45.190;5.722;2023-05-28T19:06:40;8.75;;;2.90;;
32172;SDS011;18679;45.190;5.722;2023-05-28T19:09:52;5.63;;;2.45;;
32172;SDS011;18679;45.190;5.722;2023-05-28T19:12:59;5.03;;;2.35;;
32172;SDS011;18679;45.190;5.722;2023-05-28T19:16:11;6.82;;;2.75;;
32172;SDS011;18679;45.190;5.722;2023-05-28T19:19:26;9.15;;;3.10;;
32172;SDS011;18679;45.190;5.722;2023-05-28T19:22:31;7.35;;;3.33;;
32172;SDS011;18679;45.190;5.722;2023-05-28T19:25:43;4.25;;;2.42;;
32172;SDS011;18679;45.190;5.722;2023-05-28T19:28:56;6.85;;;2.83;;
32172;SDS011;18679;45.190;5.722;2023-05-28T19:32:06;7.68;;;2.50;;
32172;SDS011;18679;45.190;5.722;2023-05-28T19:35:23;6.30;;;2.90;;